Time;durP1;ratioP1;P1;durP2;ratioP2;P2;SDS_P1;SDS_P2;PMS_P1;PMS_P2;Temp;Humidity;BMP_temperature;BMP_pressure;BME280_temperature;BME280_humidity;BME280_pressure;Samples;Min_cycle;Max_cycle;Signal;HPM_P1;HPM_P2
2022/05/25 00:03:00;;;;;;;4.27;3.93;;;;;;;;;;6064738;29;20237;-72
2022/05/25 00:06:21;;;;;;;5.90;4.07;;;;;;;;;;6062833;29;20242;-71
2022/05/25 00:09:42;;;;;;;4.83;3.40;;;;;;;;;;6048010;29;20593;-72
2022/05/25 00:13:04;;;;;;;4.93;3.80;;;;;;;;;;6062717;29;20230;-72
2022/05/25 00:16:25;;;;;;;3.70;3.40;;;;;;;;;;6058747;29;20316;-72
2022/05/25 00:23:29;;;;;;;4.93;4.00;;;;;;;;;;6058843;29;20237;-71
2022/05/25 00:26:50;;;;;;;4.30;3.90;;;;;;;;;;6064926;29;20236;-71
2022/05/25 00:30:13;;;;;;;4.60;4.20;;;;;;;;;;6060144;29;20233;-72
2022/05/25 00:33:34;;;;;;;4.03;3.73;;;;;;;;;;6062697;29;20545;-72
2022/05/25 00:36:54;;;;;;;5.50;4.87;;;;;;;;;;6062811;29;20245;-72
2022/05/25 00:40:16;;;;;;;4.60;4.23;;;;;;;;;;6063775;29;20229;-71
2022/05/25 00:43:37;;;;;;;4.80;4.47;;;;;;;;;;6065222;29;20225;-72
2022/05/25 00:46:59;;;;;;;5.10;4.70;;;;;;;;;;6064626;29;20233;-71
2022/05/25 00:50:22;;;;;;;6.03;5.23;;;;;;;;;;6061552;29;20260;-72
2022/05/25 00:53:44;;;;;;;7.20;4.47;;;;;;;;;;6064632;29;20248;-72
2022/05/25 00:57:06;;;;;;;4.47;4.03;;;;;;;;;;6066239;29;20237;-72
2022/05/25 01:00:28;;;;;;;4.80;4.37;;;;;;;;;;6059433;29;20233;-72
2022/05/25 01:03:50;;;;;;;3.90;3.60;;;;;;;;;;6060587;29;21372;-70
2022/05/25 01:07:19;;;;;;;4.83;4.43;;;;;;;;;;6063242;29;20244;-71
2022/05/25 01:10:44;;;;;;;4.00;3.73;;;;;;;;;;6062420;29;20225;-72
2022/05/25 01:14:10;;;;;;;4.70;3.87;;;;;;;;;;6062229;29;20247;-71
2022/05/25 01:17:36;;;;;;;6.77;5.13;;;;;;;;;;6059175;29;20237;-72
2022/05/25 01:21:02;;;;;;;4.97;4.47;;;;;;;;;;6064100;29;20237;-71
2022/05/25 01:24:32;;;;;;;7.30;5.00;;;;;;;;;;6065215;29;20979;-70
2022/05/25 01:27:53;;;;;;;5.20;4.80;;;;;;;;;;6048599;29;20257;-71
2022/05/25 01:31:19;;;;;;;5.23;4.80;;;;;;;;;;6059741;29;20233;-72
2022/05/25 01:34:42;;;;;;;5.30;4.90;;;;;;;;;;6060739;29;22803;-72
2022/05/25 01:38:08;;;;;;;6.67;4.73;;;;;;;;;;6053320;29;20609;-70
2022/05/25 01:41:33;;;;;;;5.23;4.83;;;;;;;;;;6060319;29;20517;-72
2022/05/25 01:44:56;;;;;;;8.87;5.80;;;;;;;;;;6062199;29;20261;-71
2022/05/25 01:48:18;;;;;;;6.23;5.63;;;;;;;;;;6059194;29;20237;-72
2022/05/25 01:51:41;;;;;;;5.23;4.87;;;;;;;;;;6062233;29;20237;-71
2022/05/25 01:55:04;;;;;;;5.77;5.27;;;;;;;;;;6046327;29;20233;-72
2022/05/25 01:58:26;;;;;;;5.83;5.33;;;;;;;;;;6054124;29;20756;-71
2022/05/25 02:01:50;;;;;;;5.40;4.90;;;;;;;;;;6047144;29;20731;-72
2022/05/25 02:05:13;;;;;;;5.33;4.97;;;;;;;;;;6063177;29;20233;-72
2022/05/25 02:08:41;;;;;;;6.30;5.80;;;;;;;;;;6060715;29;20233;-71
2022/05/25 02:12:05;;;;;;;6.47;5.97;;;;;;;;;;6065336;29;20228;-72
2022/05/25 02:15:31;;;;;;;5.70;5.20;;;;;;;;;;6060009;29;20259;-72
2022/05/25 02:18:56;;;;;;;6.00;5.50;;;;;;;;;;6059540;29;20745;-72
2022/05/25 02:22:20;;;;;;;4.50;4.20;;;;;;;;;;6056272;29;20233;-72
2022/05/25 02:25:44;;;;;;;5.30;4.80;;;;;;;;;;6061906;29;20237;-72
2022/05/25 02:29:07;;;;;;;4.97;4.57;;;;;;;;;;6063468;29;20237;-71
2022/05/25 02:32:32;;;;;;;5.10;4.70;;;;;;;;;;6060725;29;21096;-72
2022/05/25 02:35:53;;;;;;;6.10;5.60;;;;;;;;;;6064424;29;20237;-72
2022/05/25 02:39:15;;;;;;;5.50;5.00;;;;;;;;;;6056503;29;20339;-71
2022/05/25 02:42:38;;;;;;;5.57;5.17;;;;;;;;;;6056748;29;20249;-72
2022/05/25 02:45:59;;;;;;;5.60;5.10;;;;;;;;;;6056403;29;20245;-71
2022/05/25 02:49:20;;;;;;;5.00;4.60;;;;;;;;;;6057545;29;20232;-72
2022/05/25 02:52:41;;;;;;;5.50;5.10;;;;;;;;;;6046279;29;20261;-72
2022/05/25 02:56:03;;;;;;;6.23;5.63;;;;;;;;;;6054322;29;20675;-71
2022/05/25 02:59:24;;;;;;;5.30;4.50;;;;;;;;;;6058420;29;20495;-71
2022/05/25 03:02:44;;;;;;;6.10;5.47;;;;;;;;;;6060858;29;20323;-71
2022/05/25 03:06:05;;;;;;;6.23;5.03;;;;;;;;;;6056514;29;20237;-71
2022/05/25 03:09:26;;;;;;;6.90;6.40;;;;;;;;;;6059481;29;20254;-71
2022/05/25 03:12:48;;;;;;;4.77;4.37;;;;;;;;;;6027922;29;20225;-71
2022/05/25 03:16:12;;;;;;;5.70;5.20;;;;;;;;;;6064712;29;20323;-72
2022/05/25 03:19:33;;;;;;;5.57;5.17;;;;;;;;;;6065233;29;20232;-72
2022/05/25 03:22:54;;;;;;;5.30;4.90;;;;;;;;;;6065951;29;20241;-73
2022/05/25 03:26:15;;;;;;;5.87;5.47;;;;;;;;;;6064218;29;20248;-71
2022/05/25 03:29:37;;;;;;;7.27;6.67;;;;;;;;;;6069134;29;20608;-70
2022/05/25 03:32:59;;;;;;;5.60;5.17;;;;;;;;;;6065731;29;20268;-71
2022/05/25 03:36:20;;;;;;;6.03;5.60;;;;;;;;;;6064785;29;20233;-71
2022/05/25 03:39:40;;;;;;;7.50;6.93;;;;;;;;;;6066905;29;20233;-71
2022/05/25 03:43:01;;;;;;;6.83;6.03;;;;;;;;;;6073445;29;20316;-73
2022/05/25 03:46:23;;;;;;;7.60;7.00;;;;;;;;;;6065824;29;20236;-72
2022/05/25 03:49:44;;;;;;;6.23;5.73;;;;;;;;;;6067468;29;20249;-72
2022/05/25 03:53:05;;;;;;;8.40;7.67;;;;;;;;;;6070878;29;20225;-72
2022/05/25 03:56:26;;;;;;;6.47;5.87;;;;;;;;;;6063789;29;20229;-72
2022/05/25 03:59:46;;;;;;;7.77;7.13;;;;;;;;;;6069009;29;20240;-73
2022/05/25 04:03:10;;;;;;;6.87;6.37;;;;;;;;;;6066538;29;20240;-72
2022/05/25 04:06:31;;;;;;;8.20;7.50;;;;;;;;;;6067034;29;20229;-71
2022/05/25 04:09:51;;;;;;;7.87;7.07;;;;;;;;;;6066208;29;20245;-72
2022/05/25 04:13:12;;;;;;;8.60;7.90;;;;;;;;;;6052155;29;20233;-71
2022/05/25 04:16:33;;;;;;;8.73;7.93;;;;;;;;;;6068366;29;20233;-72
2022/05/25 04:19:55;;;;;;;8.60;7.63;;;;;;;;;;6065284;29;20228;-71
2022/05/25 04:23:16;;;;;;;8.97;7.80;;;;;;;;;;6065208;29;20686;-72
2022/05/25 04:26:36;;;;;;;8.80;7.90;;;;;;;;;;6063322;29;20260;-72
2022/05/25 04:29:57;;;;;;;8.83;8.13;;;;;;;;;;6065214;29;20312;-71
2022/05/25 04:33:18;;;;;;;7.27;6.63;;;;;;;;;;6061443;29;20237;-72
2022/05/25 04:36:40;;;;;;;7.87;7.17;;;;;;;;;;6063786;29;20245;-72
2022/05/25 04:40:01;;;;;;;7.87;7.27;;;;;;;;;;6064234;29;20241;-72
2022/05/25 04:43:22;;;;;;;7.97;7.23;;;;;;;;;;6065394;29;20308;-71
2022/05/25 04:46:43;;;;;;;7.93;7.33;;;;;;;;;;6061813;29;20225;-71
2022/05/25 04:50:06;;;;;;;8.37;7.50;;;;;;;;;;6062513;29;20233;-71
2022/05/25 04:53:28;;;;;;;8.90;7.93;;;;;;;;;;6066748;29;20233;-72
2022/05/25 05:00:26;;;;;;;7.13;6.53;;;;;;;;;;6057433;29;20328;-72
2022/05/25 05:03:47;;;;;;;7.27;6.57;;;;;;;;;;6060043;29;20569;-72
2022/05/25 05:07:08;;;;;;;8.27;7.57;;;;;;;;;;6066907;29;20308;-72
2022/05/25 05:10:30;;;;;;;7.87;7.17;;;;;;;;;;6057834;29;20233;-72
2022/05/25 05:13:51;;;;;;;8.43;7.73;;;;;;;;;;6059242;29;20352;-74
2022/05/25 05:17:11;;;;;;;9.00;8.30;;;;;;;;;;6058552;29;20273;-72
2022/05/25 05:20:54;;;;;;;12.27;7.43;;;;;;;;;;6050066;29;20253;-71
2022/05/25 05:24:14;;;;;;;7.53;6.97;;;;;;;;;;6060062;29;20285;-71
2022/05/25 05:27:37;;;;;;;7.37;6.67;;;;;;;;;;6061596;29;20248;-74
2022/05/25 05:30:58;;;;;;;7.53;6.80;;;;;;;;;;6058699;29;20229;-72
2022/05/25 05:34:19;;;;;;;9.37;7.67;;;;;;;;;;6057116;29;20236;-70
2022/05/25 05:37:42;;;;;;;7.13;6.50;;;;;;;;;;6053822;29;20233;-73
2022/05/25 05:41:02;;;;;;;8.47;7.47;;;;;;;;;;6056479;29;20238;-73
2022/05/25 05:44:26;;;;;;;6.53;6.00;;;;;;;;;;6058166;29;20249;-70
2022/05/25 05:47:49;;;;;;;7.90;7.10;;;;;;;;;;6059277;29;20253;-68
2022/05/25 05:51:11;;;;;;;7.37;6.70;;;;;;;;;;6055988;29;20367;-69
2022/05/25 05:54:32;;;;;;;6.10;5.60;;;;;;;;;;6060230;29;20316;-71
2022/05/25 05:57:52;;;;;;;5.70;5.30;;;;;;;;;;6058751;29;20514;-72
2022/05/25 06:01:14;;;;;;;6.80;5.57;;;;;;;;;;6053362;29;20237;-72
2022/05/25 06:04:35;;;;;;;6.07;5.47;;;;;;;;;;6064541;29;20520;-72
2022/05/25 06:07:55;;;;;;;7.63;5.90;;;;;;;;;;6063992;29;20240;-71
2022/05/25 06:11:17;;;;;;;6.33;5.67;;;;;;;;;;6059679;29;20240;-73
2022/05/25 06:14:37;;;;;;;5.50;4.93;;;;;;;;;;6067181;29;20242;-70
2022/05/25 06:21:37;;;;;;;7.13;5.63;;;;;;;;;;6062956;29;20241;-72
2022/05/25 06:24:58;;;;;;;6.67;4.47;;;;;;;;;;6060533;29;20245;-71
2022/05/25 06:28:19;;;;;;;4.23;3.93;;;;;;;;;;6060475;29;21441;-70
2022/05/25 06:31:40;;;;;;;7.03;4.90;;;;;;;;;;6055295;29;20241;-70
2022/05/25 06:35:02;;;;;;;5.13;4.67;;;;;;;;;;6064175;29;20233;-72
2022/05/25 06:38:23;;;;;;;5.40;4.10;;;;;;;;;;6061712;29;20225;-71
2022/05/25 06:41:43;;;;;;;5.23;4.90;;;;;;;;;;6063278;29;20757;-73
2022/05/25 06:45:04;;;;;;;4.23;3.80;;;;;;;;;;6054581;29;20264;-71
2022/05/25 06:48:25;;;;;;;4.73;4.17;;;;;;;;;;6061339;29;20608;-72
2022/05/25 06:51:47;;;;;;;4.83;4.43;;;;;;;;;;6050790;29;20237;-74
2022/05/25 06:55:08;;;;;;;4.80;3.60;;;;;;;;;;6059373;29;20238;-68
2022/05/25 06:58:28;;;;;;;3.90;3.60;;;;;;;;;;6053821;29;20691;-67
2022/05/25 07:01:49;;;;;;;7.90;4.23;;;;;;;;;;6059080;29;20249;-67
2022/05/25 07:05:10;;;;;;;4.87;4.03;;;;;;;;;;6064925;29;20240;-72
2022/05/25 07:08:32;;;;;;;3.30;3.10;;;;;;;;;;6058018;29;20237;-72
2022/05/25 07:11:52;;;;;;;7.23;4.07;;;;;;;;;;6061604;29;20253;-72
2022/05/25 07:15:13;;;;;;;3.97;3.63;;;;;;;;;;6058160;29;20241;-72
2022/05/25 07:18:33;;;;;;;4.43;4.03;;;;;;;;;;6054867;29;20324;-73
2022/05/25 07:21:54;;;;;;;4.90;4.50;;;;;;;;;;6057751;29;20229;-70
2022/05/25 07:25:16;;;;;;;3.77;3.47;;;;;;;;;;6063997;29;20260;-70
2022/05/25 07:28:37;;;;;;;3.70;3.40;;;;;;;;;;6053377;29;20659;-72
2022/05/25 07:32:01;;;;;;;4.17;3.80;;;;;;;;;;6066396;29;20327;-74
2022/05/25 07:35:22;;;;;;;6.43;4.40;;;;;;;;;;6061211;29;20241;-71
2022/05/25 07:38:45;;;;;;;3.63;3.33;;;;;;;;;;6063635;29;20229;-72
2022/05/25 07:42:08;;;;;;;2.97;2.73;;;;;;;;;;6062202;29;20838;-72
2022/05/25 07:45:29;;;;;;;2.87;2.37;;;;;;;;;;6058924;29;20331;-71
2022/05/25 07:48:49;;;;;;;4.83;3.63;;;;;;;;;;6064082;29;20226;-72
2022/05/25 07:52:10;;;;;;;4.60;2.70;;;;;;;;;;6060995;29;20764;-71
2022/05/25 07:55:31;;;;;;;3.67;3.37;;;;;;;;;;6066892;29;20810;-70
2022/05/25 07:58:54;;;;;;;2.90;2.70;;;;;;;;;;6060083;29;20237;-71
2022/05/25 08:05:59;;;;;;;4.87;3.60;;;;;;;;;;6060327;29;20229;-70
2022/05/25 08:09:19;;;;;;;4.37;3.97;;;;;;;;;;6063536;29;20237;-70
2022/05/25 08:12:40;;;;;;;3.67;2.80;;;;;;;;;;6065207;29;20242;-69
2022/05/25 08:16:02;;;;;;;3.93;3.27;;;;;;;;;;6069566;29;20240;-68
2022/05/25 08:19:23;;;;;;;5.43;3.27;;;;;;;;;;6061380;29;20388;-71
2022/05/25 08:22:43;;;;;;;3.27;2.77;;;;;;;;;;6047175;29;20790;-72
2022/05/25 08:26:04;;;;;;;3.73;2.70;;;;;;;;;;6068350;29;20232;-71
2022/05/25 08:29:25;;;;;;;5.10;3.10;;;;;;;;;;6066969;29;20237;-69
2022/05/25 08:32:47;;;;;;;2.33;2.13;;;;;;;;;;6066527;29;20497;-72
2022/05/25 08:36:07;;;;;;;3.00;2.70;;;;;;;;;;6066442;29;20248;-70
2022/05/25 08:39:28;;;;;;;2.80;2.60;;;;;;;;;;6066841;29;20252;-70
2022/05/25 08:42:51;;;;;;;3.23;3.00;;;;;;;;;;6068045;29;20233;-70
2022/05/25 08:46:14;;;;;;;3.40;3.10;;;;;;;;;;6067379;29;20238;-67
2022/05/25 08:49:37;;;;;;;3.03;2.38;;;;;;;;;;6067398;29;20233;-70
2022/05/25 08:52:58;;;;;;;2.22;2.00;;;;;;;;;;6069724;29;20237;-70
2022/05/25 08:56:20;;;;;;;3.22;2.15;;;;;;;;;;6067317;29;20245;-70
2022/05/25 08:59:43;;;;;;;1.67;1.55;;;;;;;;;;6065731;29;20237;-73
2022/05/25 09:03:07;;;;;;;3.47;2.10;;;;;;;;;;6056845;29;20237;-70
2022/05/25 09:06:33;;;;;;;3.00;1.75;;;;;;;;;;6059083;29;20229;-70
2022/05/25 09:09:54;;;;;;;5.18;2.00;;;;;;;;;;6067203;29;20252;-70
2022/05/25 09:13:15;;;;;;;1.95;1.85;;;;;;;;;;6065468;29;20643;-72
2022/05/25 09:16:37;;;;;;;2.73;2.53;;;;;;;;;;6064271;29;20245;-69
2022/05/25 09:19:59;;;;;;;4.47;2.37;;;;;;;;;;6065245;29;20876;-73
2022/05/25 09:23:22;;;;;;;2.92;1.80;;;;;;;;;;6063713;29;20230;-71
2022/05/25 09:26:43;;;;;;;2.28;2.17;;;;;;;;;;6059703;29;20225;-73
2022/05/25 09:30:04;;;;;;;3.30;1.88;;;;;;;;;;6052693;29;20233;-68
2022/05/25 09:33:29;;;;;;;2.55;2.35;;;;;;;;;;6068146;29;20229;-68
2022/05/25 09:36:53;;;;;;;3.90;2.05;;;;;;;;;;6061018;29;20608;-68
2022/05/25 09:40:20;;;;;;;2.50;2.30;;;;;;;;;;6064535;29;20237;-68
2022/05/25 09:43:43;;;;;;;1.90;1.80;;;;;;;;;;6056132;29;20635;-67
2022/05/25 09:47:06;;;;;;;2.53;2.20;;;;;;;;;;6063000;29;20917;-68
2022/05/25 09:50:33;;;;;;;2.70;2.50;;;;;;;;;;6058518;29;20612;-66
2022/05/25 09:53:55;;;;;;;2.95;2.75;;;;;;;;;;6047455;29;20498;-66
2022/05/25 09:57:25;;;;;;;2.60;2.40;;;;;;;;;;6054150;29;20326;-66
2022/05/25 10:00:49;;;;;;;3.60;2.63;;;;;;;;;;6060825;29;20241;-67
2022/05/25 10:04:11;;;;;;;1.70;1.60;;;;;;;;;;6063531;29;20242;-70
2022/05/25 10:07:33;;;;;;;2.17;2.08;;;;;;;;;;6062967;29;20229;-70
2022/05/25 10:10:56;;;;;;;3.17;2.30;;;;;;;;;;6059027;29;20226;-70
2022/05/25 10:14:26;;;;;;;3.15;2.00;;;;;;;;;;6066708;29;20233;-71
2022/05/25 10:17:48;;;;;;;1.90;1.80;;;;;;;;;;6065470;29;20332;-73
2022/05/25 10:21:12;;;;;;;1.60;1.23;;;;;;;;;;6063158;29;20267;-71
2022/05/25 10:24:36;;;;;;;3.27;1.37;;;;;;;;;;6057992;29;20237;-73
2022/05/25 10:27:57;;;;;;;1.58;1.48;;;;;;;;;;6052903;29;20331;-73
2022/05/25 10:38:39;;;;;;;2.10;1.90;;;;;;;;;;6059752;29;20233;-73
2022/05/25 10:42:01;;;;;;;1.92;1.33;;;;;;;;;;6062248;29;20233;-74
2022/05/25 10:45:23;;;;;;;2.05;1.35;;;;;;;;;;6059757;29;20236;-73
2022/05/25 10:48:55;;;;;;;4.30;2.05;;;;;;;;;;6055888;29;20503;-74
2022/05/25 10:52:28;;;;;;;5.95;2.08;;;;;;;;;;6061298;29;20253;-73
2022/05/25 10:55:52;;;;;;;1.55;1.45;;;;;;;;;;6061179;29;20237;-73
2022/05/25 10:59:16;;;;;;;1.83;1.73;;;;;;;;;;6054219;29;20281;-72
2022/05/25 11:02:45;;;;;;;1.75;1.65;;;;;;;;;;6048283;29;20523;-72
2022/05/25 11:06:16;;;;;;;1.50;1.40;;;;;;;;;;6032062;29;20718;-69
2022/05/25 11:09:43;;;;;;;3.25;1.45;;;;;;;;;;6032370;29;20232;-71
2022/05/25 11:13:14;;;;;;;1.67;1.58;;;;;;;;;;6040185;29;20539;-71
2022/05/25 11:16:40;;;;;;;3.35;1.45;;;;;;;;;;6031720;29;20228;-74
2022/05/25 11:20:22;;;;;;;1.63;1.52;;;;;;;;;;6025921;29;20229;-70
2022/05/25 11:23:57;;;;;;;3.70;2.00;;;;;;;;;;6031264;29;20603;-71
2022/05/25 11:27:23;;;;;;;1.33;1.20;;;;;;;;;;6046316;29;20466;-69
2022/05/25 11:30:57;;;;;;;2.83;1.58;;;;;;;;;;6033856;29;20268;-68
2022/05/25 11:34:25;;;;;;;6.28;1.73;;;;;;;;;;6044513;29;20792;-69
2022/05/25 11:37:52;;;;;;;1.00;1.00;;;;;;;;;;6062075;29;20260;-70
2022/05/25 11:41:19;;;;;;;2.53;1.02;;;;;;;;;;6059420;29;20237;-72
2022/05/25 11:44:46;;;;;;;1.23;0.90;;;;;;;;;;6059241;29;20259;-71
2022/05/25 11:48:13;;;;;;;1.55;1.45;;;;;;;;;;6060336;29;20233;-69
2022/05/25 11:51:38;;;;;;;2.08;1.50;;;;;;;;;;6061790;29;20696;-70
2022/05/25 11:55:04;;;;;;;1.48;1.38;;;;;;;;;;6058838;29;20241;-72
2022/05/25 11:58:31;;;;;;;1.38;1.27;;;;;;;;;;6062469;29;20324;-68
2022/05/25 12:01:57;;;;;;;2.55;1.15;;;;;;;;;;6058381;29;20233;-72
2022/05/25 12:05:21;;;;;;;1.83;1.20;;;;;;;;;;6057134;29;20766;-71
2022/05/25 12:09:01;;;;;;;1.88;1.30;;;;;;;;;;6065782;29;20261;-71
2022/05/25 12:12:24;;;;;;;2.53;1.48;;;;;;;;;;6060442;29;20244;-66
2022/05/25 12:15:52;;;;;;;2.03;1.73;;;;;;;;;;6060197;29;20801;-70
2022/05/25 12:19:16;;;;;;;2.03;1.30;;;;;;;;;;6059963;29;20331;-70
2022/05/25 12:22:37;;;;;;;1.67;1.23;;;;;;;;;;6060464;29;20237;-70
2022/05/25 12:25:59;;;;;;;4.32;1.65;;;;;;;;;;6056363;29;20237;-73
2022/05/25 12:29:22;;;;;;;1.33;1.10;;;;;;;;;;6056466;29;20237;-71
2022/05/25 12:32:44;;;;;;;3.22;1.50;;;;;;;;;;6062947;29;20233;-73
2022/05/25 12:36:07;;;;;;;2.70;1.30;;;;;;;;;;6061535;29;20241;-74
2022/05/25 12:39:58;;;;;;;1.40;1.30;;;;;;;;;;6061280;29;20356;-73
2022/05/25 12:43:38;;;;;;;3.08;1.42;;;;;;;;;;5995894;29;20293;-70
2022/05/25 12:51:02;;;;;;;1.90;1.33;;;;;;;;;;6060059;29;20274;-71
2022/05/25 12:54:23;;;;;;;1.45;1.35;;;;;;;;;;6062153;29;20233;-72
2022/05/25 12:57:47;;;;;;;3.63;1.27;;;;;;;;;;6049593;29;20264;-72
2022/05/25 13:01:08;;;;;;;1.52;1.33;;;;;;;;;;6038273;29;20229;-71
2022/05/25 13:04:43;;;;;;;2.05;1.42;;;;;;;;;;6060403;29;20323;-70
2022/05/25 13:08:05;;;;;;;2.03;1.02;;;;;;;;;;6056279;29;20238;-71
2022/05/25 13:11:30;;;;;;;3.40;0.88;;;;;;;;;;6054059;29;20328;-70
2022/05/25 13:14:55;;;;;;;2.35;0.88;;;;;;;;;;6059189;29;20221;-69
2022/05/25 13:18:35;;;;;;;1.52;1.00;;;;;;;;;;6061140;29;20607;-69
2022/05/25 13:22:21;;;;;;;1.48;0.90;;;;;;;;;;6059383;29;20245;-71
2022/05/25 13:25:47;;;;;;;0.90;0.90;;;;;;;;;;6061824;29;20253;-69
2022/05/25 13:29:13;;;;;;;3.10;1.15;;;;;;;;;;6048462;29;20311;-72
2022/05/25 13:32:35;;;;;;;2.45;1.05;;;;;;;;;;6055711;29;20233;-72
2022/05/25 13:35:58;;;;;;;4.55;1.20;;;;;;;;;;6054849;29;20335;-72
2022/05/25 13:39:20;;;;;;;2.20;1.02;;;;;;;;;;6054325;29;20350;-70
2022/05/25 13:42:45;;;;;;;1.70;1.52;;;;;;;;;;6053103;29;20233;-70
2022/05/25 13:46:09;;;;;;;0.98;0.98;;;;;;;;;;6041708;29;20245;-72
2022/05/25 13:49:31;;;;;;;1.98;0.70;;;;;;;;;;6032722;29;20257;-74
2022/05/25 13:52:52;;;;;;;1.33;0.70;;;;;;;;;;6041322;29;20233;-71
2022/05/25 13:56:13;;;;;;;1.38;0.82;;;;;;;;;;6043645;29;20241;-71
2022/05/25 13:59:37;;;;;;;1.48;0.93;;;;;;;;;;6037487;29;20509;-69
2022/05/25 14:02:59;;;;;;;2.38;1.20;;;;;;;;;;6044139;29;22753;-72
2022/05/25 14:06:19;;;;;;;3.15;1.02;;;;;;;;;;6048623;29;20500;-72
2022/05/25 14:13:19;;;;;;;1.40;1.30;;;;;;;;;;6026641;29;20257;-71
2022/05/25 14:16:42;;;;;;;2.00;0.93;;;;;;;;;;6045563;29;20582;-71
2022/05/25 14:20:05;;;;;;;2.28;1.45;;;;;;;;;;6044731;29;20245;-72
2022/05/25 14:23:28;;;;;;;2.10;1.10;;;;;;;;;;6039421;29;20331;-70
2022/05/25 14:26:51;;;;;;;2.38;1.20;;;;;;;;;;6043019;29;20635;-71
2022/05/25 14:30:16;;;;;;;0.98;0.90;;;;;;;;;;6039946;29;20248;-73
2022/05/25 14:33:38;;;;;;;1.52;1.35;;;;;;;;;;6059720;29;20229;-73
2022/05/25 14:36:59;;;;;;;2.88;1.38;;;;;;;;;;6067922;29;20249;-72
2022/05/25 14:40:21;;;;;;;1.60;1.10;;;;;;;;;;6064720;29;20629;-72
2022/05/25 14:43:43;;;;;;;1.10;1.08;;;;;;;;;;6066354;29;20229;-73
2022/05/25 14:47:10;;;;;;;1.58;1.40;;;;;;;;;;6063037;29;20311;-73
2022/05/25 14:50:33;;;;;;;2.70;1.30;;;;;;;;;;6062859;29;20233;-73
2022/05/25 14:54:02;;;;;;;1.42;1.08;;;;;;;;;;6045804;29;20648;-72
2022/05/25 14:57:24;;;;;;;2.13;1.17;;;;;;;;;;6060463;29;20271;-72
2022/05/25 15:00:46;;;;;;;1.70;1.30;;;;;;;;;;6064749;29;20340;-73
2022/05/25 15:04:09;;;;;;;2.28;1.05;;;;;;;;;;6063648;29;20571;-73
2022/05/25 15:07:30;;;;;;;2.13;1.35;;;;;;;;;;6061626;29;20324;-72
2022/05/25 15:10:51;;;;;;;3.22;1.25;;;;;;;;;;6064986;29;20241;-73
2022/05/25 15:21:34;;;;;;;2.63;1.08;;;;;;;;;;6054542;29;20221;-73
2022/05/25 15:24:59;;;;;;;1.00;1.00;;;;;;;;;;6065944;29;20237;-73
2022/05/25 15:28:31;;;;;;;1.00;0.63;;;;;;;;;;6066119;29;20316;-73
2022/05/25 15:31:51;;;;;;;4.03;1.00;;;;;;;;;;6054518;29;20812;-73
2022/05/25 15:35:12;;;;;;;2.10;1.90;;;;;;;;;;6063060;29;20526;-73
2022/05/25 15:38:33;;;;;;;2.50;1.08;;;;;;;;;;6059223;29;20338;-78
2022/05/25 15:41:55;;;;;;;1.45;1.10;;;;;;;;;;6057466;29;20671;-73
2022/05/25 15:45:16;;;;;;;7.85;3.35;;;;;;;;;;6062139;29;20252;-74
2022/05/25 15:48:37;;;;;;;3.30;1.85;;;;;;;;;;6066213;29;20607;-72
2022/05/25 15:51:59;;;;;;;4.28;1.65;;;;;;;;;;6052966;29;22032;-73
2022/05/25 15:55:20;;;;;;;1.98;1.25;;;;;;;;;;6041047;29;20241;-74
2022/05/25 15:58:42;;;;;;;2.78;1.85;;;;;;;;;;6056595;29;20245;-73
2022/05/25 16:02:03;;;;;;;2.13;1.20;;;;;;;;;;6060796;29;20237;-73
2022/05/25 16:05:24;;;;;;;3.25;1.60;;;;;;;;;;6057479;29;20233;-73
2022/05/25 16:12:22;;;;;;;1.30;1.20;;;;;;;;;;6058228;29;20347;-73
2022/05/25 16:15:44;;;;;;;1.45;1.30;;;;;;;;;;6061794;29;20233;-72
2022/05/25 16:19:05;;;;;;;1.58;1.48;;;;;;;;;;6057637;29;20229;-73
2022/05/25 16:22:25;;;;;;;1.38;1.17;;;;;;;;;;6050029;29;20240;-73
2022/05/25 16:25:47;;;;;;;2.17;1.20;;;;;;;;;;6060395;29;20801;-73
2022/05/25 16:29:08;;;;;;;2.88;1.42;;;;;;;;;;6068831;29;20237;-72
2022/05/25 16:32:30;;;;;;;4.80;1.77;;;;;;;;;;6069025;29;20232;-74
2022/05/25 16:35:50;;;;;;;2.90;2.70;;;;;;;;;;6064969;29;20225;-73
2022/05/25 16:39:12;;;;;;;2.47;2.28;;;;;;;;;;6066670;29;21647;-73
2022/05/25 16:42:32;;;;;;;1.83;1.73;;;;;;;;;;6070745;29;20265;-74
2022/05/25 16:45:53;;;;;;;3.67;2.20;;;;;;;;;;6064406;29;20229;-73
2022/05/25 16:49:15;;;;;;;2.33;2.13;;;;;;;;;;6055287;29;20241;-73
2022/05/25 16:52:36;;;;;;;3.77;1.90;;;;;;;;;;6055490;29;20608;-72
2022/05/25 16:55:56;;;;;;;2.65;2.33;;;;;;;;;;6059693;29;20241;-73
2022/05/25 16:59:17;;;;;;;2.40;2.17;;;;;;;;;;6061439;29;20233;-73
2022/05/25 17:02:38;;;;;;;1.87;1.70;;;;;;;;;;6063154;29;20299;-72
2022/05/25 17:06:00;;;;;;;2.50;2.27;;;;;;;;;;6060673;29;20236;-73
2022/05/25 17:09:21;;;;;;;2.20;2.00;;;;;;;;;;6061283;29;20237;-72
2022/05/25 17:12:43;;;;;;;2.40;1.70;;;;;;;;;;6058864;29;20545;-71
2022/05/25 17:16:04;;;;;;;3.60;2.27;;;;;;;;;;6061691;29;20259;-72
2022/05/25 17:23:05;;;;;;;4.27;3.40;;;;;;;;;;6059877;29;20320;-72
2022/05/25 17:26:26;;;;;;;6.30;2.63;;;;;;;;;;6059750;29;20558;-72
2022/05/25 17:29:48;;;;;;;3.40;3.10;;;;;;;;;;6061610;29;20320;-72
2022/05/25 17:33:09;;;;;;;2.90;1.87;;;;;;;;;;6061961;29;20245;-73
2022/05/25 17:43:47;;;;;;;2.60;2.40;;;;;;;;;;6047631;29;20230;-75
2022/05/25 17:47:08;;;;;;;2.87;2.20;;;;;;;;;;6054763;29;20237;-73
2022/05/25 17:50:33;;;;;;;4.00;3.57;;;;;;;;;;6058261;29;20237;-72
2022/05/25 17:53:54;;;;;;;3.97;3.10;;;;;;;;;;6052669;29;20236;-72
2022/05/25 17:57:15;;;;;;;4.00;3.47;;;;;;;;;;6056551;29;20225;-73
2022/05/25 18:00:36;;;;;;;3.43;2.90;;;;;;;;;;6050257;29;20296;-73
2022/05/25 18:03:57;;;;;;;4.47;3.50;;;;;;;;;;6052816;29;20649;-72
2022/05/25 18:07:19;;;;;;;4.57;3.53;;;;;;;;;;6055858;29;20265;-74
2022/05/25 18:10:40;;;;;;;4.70;4.30;;;;;;;;;;6057355;29;20286;-74
2022/05/25 18:14:03;;;;;;;5.47;3.80;;;;;;;;;;6053782;29;20241;-74
2022/05/25 18:17:24;;;;;;;4.13;3.13;;;;;;;;;;6051945;29;20237;-74
2022/05/25 18:20:45;;;;;;;3.47;3.17;;;;;;;;;;6039502;29;20237;-69
2022/05/25 18:24:06;;;;;;;3.73;3.43;;;;;;;;;;6041353;29;20503;-70
2022/05/25 18:27:26;;;;;;;3.57;3.07;;;;;;;;;;6047600;29;20237;-69
2022/05/25 18:30:49;;;;;;;7.00;4.00;;;;;;;;;;6048161;29;20592;-71
2022/05/25 18:34:09;;;;;;;4.37;3.97;;;;;;;;;;6052898;29;20248;-68
2022/05/25 18:37:31;;;;;;;8.60;7.43;;;;;;;;;;6052141;29;20241;-69
2022/05/25 18:40:51;;;;;;;4.93;4.53;;;;;;;;;;6044461;29;20619;-70
2022/05/25 18:44:13;;;;;;;5.37;4.87;;;;;;;;;;6043316;29;20238;-70
2022/05/25 18:47:38;;;;;;;6.70;6.10;;;;;;;;;;6034346;29;20237;-70
2022/05/25 18:50:59;;;;;;;5.83;5.27;;;;;;;;;;6038490;29;20234;-70
2022/05/25 18:54:20;;;;;;;4.27;3.90;;;;;;;;;;6041630;29;20261;-69
2022/05/25 18:57:40;;;;;;;4.57;3.80;;;;;;;;;;6051582;29;20265;-69
2022/05/25 19:01:01;;;;;;;4.30;3.90;;;;;;;;;;6058113;29;20232;-69
2022/05/25 19:04:26;;;;;;;7.57;5.47;;;;;;;;;;6060879;29;20628;-69
2022/05/25 19:07:47;;;;;;;7.07;6.37;;;;;;;;;;6040330;29;20233;-68
2022/05/25 19:11:08;;;;;;;4.27;3.87;;;;;;;;;;6053099;29;20660;-70
2022/05/25 19:14:29;;;;;;;4.33;3.93;;;;;;;;;;6050285;29;20233;-68
2022/05/25 19:17:49;;;;;;;4.80;3.73;;;;;;;;;;6033058;29;20249;-71
2022/05/25 19:21:12;;;;;;;4.97;4.57;;;;;;;;;;6057760;29;20332;-74
2022/05/25 19:24:33;;;;;;;4.53;3.87;;;;;;;;;;6060381;29;20237;-69
2022/05/25 19:27:54;;;;;;;7.50;6.37;;;;;;;;;;6058862;29;20237;-69
2022/05/25 19:31:15;;;;;;;7.10;5.80;;;;;;;;;;6058297;29;20245;-68
2022/05/25 19:34:35;;;;;;;4.60;4.00;;;;;;;;;;6061823;29;20221;-67
2022/05/25 19:37:58;;;;;;;6.30;4.50;;;;;;;;;;6059131;29;20232;-68
2022/05/25 19:41:18;;;;;;;5.73;5.20;;;;;;;;;;6059071;29;20245;-69
2022/05/25 19:44:42;;;;;;;6.53;5.40;;;;;;;;;;6058415;29;20316;-68
2022/05/25 19:48:03;;;;;;;4.50;4.20;;;;;;;;;;6054562;29;20234;-68
2022/05/25 19:51:24;;;;;;;8.57;5.50;;;;;;;;;;6057319;29;20229;-67
2022/05/25 19:54:46;;;;;;;6.10;5.50;;;;;;;;;;6056982;29;20834;-68
2022/05/25 19:58:07;;;;;;;5.03;4.60;;;;;;;;;;6062928;29;20779;-67
2022/05/25 20:01:27;;;;;;;5.37;4.93;;;;;;;;;;6065752;29;20872;-67
2022/05/25 20:04:48;;;;;;;5.60;4.67;;;;;;;;;;6063484;29;20237;-69
2022/05/25 20:08:09;;;;;;;5.93;4.70;;;;;;;;;;6067321;29;20320;-69
2022/05/25 20:11:31;;;;;;;4.90;4.50;;;;;;;;;;6067779;29;20947;-68
2022/05/25 20:14:52;;;;;;;5.13;4.73;;;;;;;;;;6061545;29;20237;-67
2022/05/25 20:18:13;;;;;;;5.20;4.80;;;;;;;;;;6061473;29;20233;-66
2022/05/25 20:21:34;;;;;;;5.67;4.90;;;;;;;;;;6063130;29;20324;-69
2022/05/25 20:24:55;;;;;;;5.57;5.17;;;;;;;;;;6059093;29;20574;-68
2022/05/25 20:28:17;;;;;;;4.80;4.43;;;;;;;;;;6063453;29;20798;-67
2022/05/25 20:31:38;;;;;;;4.27;3.97;;;;;;;;;;6063492;29;20253;-67
2022/05/25 20:34:59;;;;;;;4.70;4.10;;;;;;;;;;6063835;29;20229;-69
2022/05/25 20:38:21;;;;;;;5.10;4.60;;;;;;;;;;6063436;29;20261;-66
2022/05/25 20:41:41;;;;;;;5.27;4.87;;;;;;;;;;6060812;29;20320;-69
2022/05/25 20:45:04;;;;;;;5.60;5.00;;;;;;;;;;6057181;29;20234;-68
2022/05/25 20:48:28;;;;;;;5.00;4.50;;;;;;;;;;6058547;29;20249;-69
2022/05/25 20:51:48;;;;;;;5.00;4.60;;;;;;;;;;6051641;29;20691;-69
2022/05/25 20:55:11;;;;;;;5.57;4.93;;;;;;;;;;6051732;29;20566;-68
2022/05/25 20:58:32;;;;;;;4.97;3.57;;;;;;;;;;6051614;29;20233;-70
2022/05/25 21:01:54;;;;;;;4.10;3.70;;;;;;;;;;6058249;29;20317;-71
2022/05/25 21:05:14;;;;;;;4.83;4.43;;;;;;;;;;6059968;29;20355;-69
2022/05/25 21:08:35;;;;;;;4.40;3.97;;;;;;;;;;6057229;29;20241;-69